sensor_id;sensor_type;location;lat;lon;timestamp;P1;durP1;ratioP1;P2;durP2;ratioP2
68250;SDS011;55066;51.560;4.642;2023-05-23T00:00:57;21.75;;;10.90;;
68250;SDS011;55066;51.560;4.642;2023-05-23T00:03:24;17.67;;;8.20;;
68250;SDS011;55066;51.560;4.642;2023-05-23T00:05:50;21.05;;;8.80;;
68250;SDS011;55066;51.560;4.642;2023-05-23T00:08:16;15.93;;;7.77;;
68250;SDS011;55066;51.560;4.642;2023-05-23T00:10:43;16.73;;;7.93;;
68250;SDS011;55066;51.560;4.642;2023-05-23T00:13:10;15.90;;;7.43;;
68250;SDS011;55066;51.560;4.642;2023-05-23T00:15:41;13.43;;;6.40;;
68250;SDS011;55066;51.560;4.642;2023-05-23T00:18:06;17.58;;;7.18;;
68250;SDS011;55066;51.560;4.642;2023-05-23T00:20:35;17.42;;;6.53;;
68250;SDS011;55066;51.560;4.642;2023-05-23T00:23:01;15.40;;;7.38;;
68250;SDS011;55066;51.560;4.642;2023-05-23T00:25:28;14.55;;;5.78;;
68250;SDS011;55066;51.560;4.642;2023-05-23T00:28:00;19.23;;;7.65;;
68250;SDS011;55066;51.560;4.642;2023-05-23T00:30:31;14.77;;;6.78;;
68250;SDS011;55066;51.560;4.642;2023-05-23T00:32:57;14.52;;;6.80;;
68250;SDS011;55066;51.560;4.642;2023-05-23T00:35:24;15.32;;;6.63;;
68250;SDS011;55066;51.560;4.642;2023-05-23T00:37:51;15.48;;;6.88;;
68250;SDS011;55066;51.560;4.642;2023-05-23T00:40:17;17.37;;;7.67;;
68250;SDS011;55066;51.560;4.642;2023-05-23T00:42:42;19.88;;;7.28;;
68250;SDS011;55066;51.560;4.642;2023-05-23T00:45:08;19.67;;;7.60;;
68250;SDS011;55066;51.560;4.642;2023-05-23T00:47:38;21.45;;;7.88;;
68250;SDS011;55066;51.560;4.642;2023-05-23T00:50:06;18.08;;;7.22;;
68250;SDS011;55066;51.560;4.642;2023-05-23T00:52:33;21.77;;;8.13;;
68250;SDS011;55066;51.560;4.642;2023-05-23T00:55:00;19.50;;;8.65;;
68250;SDS011;55066;51.560;4.642;2023-05-23T00:57:27;21.65;;;8.27;;
68250;SDS011;55066;51.560;4.642;2023-05-23T00:59:52;25.63;;;8.68;;
68250;SDS011;55066;51.560;4.642;2023-05-23T01:02:21;27.52;;;7.97;;
68250;SDS011;55066;51.560;4.642;2023-05-23T01:04:49;18.42;;;6.97;;
68250;SDS011;55066;51.560;4.642;2023-05-23T01:07:19;21.88;;;7.85;;
68250;SDS011;55066;51.560;4.642;2023-05-23T01:09:44;14.40;;;6.57;;
68250;SDS011;55066;51.560;4.642;2023-05-23T01:12:28;19.20;;;8.20;;
68250;SDS011;55066;51.560;4.642;2023-05-23T01:15:13;27.00;;;8.15;;
68250;SDS011;55066;51.560;4.642;2023-05-23T01:20:33;26.13;;;7.75;;
68250;SDS011;55066;51.560;4.642;2023-05-23T01:23:10;21.97;;;6.93;;
68250;SDS011;55066;51.560;4.642;2023-05-23T01:28:54;19.70;;;7.00;;
68250;SDS011;55066;51.560;4.642;2023-05-23T01:31:24;19.63;;;7.20;;
68250;SDS011;55066;51.560;4.642;2023-05-23T01:33:53;25.35;;;7.50;;
68250;SDS011;55066;51.560;4.642;2023-05-23T01:36:20;19.17;;;7.27;;
68250;SDS011;55066;51.560;4.642;2023-05-23T01:38:47;18.30;;;6.38;;
68250;SDS011;55066;51.560;4.642;2023-05-23T01:41:13;18.05;;;6.40;;
68250;SDS011;55066;51.560;4.642;2023-05-23T01:43:39;21.40;;;7.10;;
68250;SDS011;55066;51.560;4.642;2023-05-23T01:46:04;18.38;;;7.85;;
68250;SDS011;55066;51.560;4.642;2023-05-23T01:48:32;19.85;;;6.63;;
68250;SDS011;55066;51.560;4.642;2023-05-23T01:51:00;15.67;;;6.93;;
68250;SDS011;55066;51.560;4.642;2023-05-23T01:53:28;18.55;;;7.07;;
68250;SDS011;55066;51.560;4.642;2023-05-23T01:55:56;14.90;;;6.47;;
68250;SDS011;55066;51.560;4.642;2023-05-23T01:58:22;14.48;;;5.45;;
68250;SDS011;55066;51.560;4.642;2023-05-23T02:00:48;12.00;;;5.20;;
68250;SDS011;55066;51.560;4.642;2023-05-23T02:03:14;9.37;;;4.80;;
68250;SDS011;55066;51.560;4.642;2023-05-23T02:05:40;11.98;;;4.78;;
68250;SDS011;55066;51.560;4.642;2023-05-23T02:08:07;11.02;;;4.30;;
68250;SDS011;55066;51.560;4.642;2023-05-23T02:10:36;12.20;;;5.05;;
68250;SDS011;55066;51.560;4.642;2023-05-23T02:13:03;14.60;;;4.83;;
68250;SDS011;55066;51.560;4.642;2023-05-23T02:15:34;15.15;;;4.32;;
68250;SDS011;55066;51.560;4.642;2023-05-23T02:18:01;14.90;;;4.50;;
68250;SDS011;55066;51.560;4.642;2023-05-23T02:20:28;12.55;;;4.18;;
68250;SDS011;55066;51.560;4.642;2023-05-23T02:22:53;11.68;;;4.05;;
68250;SDS011;55066;51.560;4.642;2023-05-23T02:25:19;9.80;;;3.93;;
68250;SDS011;55066;51.560;4.642;2023-05-23T02:27:45;15.67;;;4.73;;
68250;SDS011;55066;51.560;4.642;2023-05-23T02:30:12;10.40;;;4.28;;
68250;SDS011;55066;51.560;4.642;2023-05-23T02:32:37;8.65;;;3.72;;
68250;SDS011;55066;51.560;4.642;2023-05-23T02:35:03;10.83;;;4.20;;
68250;SDS011;55066;51.560;4.642;2023-05-23T02:37:30;9.85;;;4.15;;
68250;SDS011;55066;51.560;4.642;2023-05-23T02:39:56;15.70;;;4.30;;
68250;SDS011;55066;51.560;4.642;2023-05-23T02:42:22;9.88;;;4.30;;
68250;SDS011;55066;51.560;4.642;2023-05-23T02:44:47;10.03;;;4.67;;
68250;SDS011;55066;51.560;4.642;2023-05-23T02:47:12;15.75;;;4.95;;
68250;SDS011;55066;51.560;4.642;2023-05-23T02:49:38;12.10;;;4.65;;
68250;SDS011;55066;51.560;4.642;2023-05-23T02:52:05;15.18;;;4.60;;
68250;SDS011;55066;51.560;4.642;2023-05-23T02:54:31;13.98;;;4.90;;
68250;SDS011;55066;51.560;4.642;2023-05-23T02:56:56;12.30;;;4.80;;
68250;SDS011;55066;51.560;4.642;2023-05-23T02:59:22;13.93;;;4.75;;
68250;SDS011;55066;51.560;4.642;2023-05-23T03:01:48;14.82;;;4.88;;
68250;SDS011;55066;51.560;4.642;2023-05-23T03:04:15;15.73;;;5.30;;
68250;SDS011;55066;51.560;4.642;2023-05-23T03:06:41;15.68;;;5.55;;
68250;SDS011;55066;51.560;4.642;2023-05-23T03:09:08;14.13;;;5.90;;
68250;SDS011;55066;51.560;4.642;2023-05-23T03:11:34;16.17;;;5.33;;
68250;SDS011;55066;51.560;4.642;2023-05-23T03:13:59;15.03;;;5.47;;
68250;SDS011;55066;51.560;4.642;2023-05-23T03:16:26;12.02;;;5.68;;
68250;SDS011;55066;51.560;4.642;2023-05-23T03:18:51;14.17;;;5.23;;
68250;SDS011;55066;51.560;4.642;2023-05-23T03:21:17;12.88;;;5.20;;
68250;SDS011;55066;51.560;4.642;2023-05-23T03:23:42;18.00;;;5.72;;
68250;SDS011;55066;51.560;4.642;2023-05-23T03:26:09;18.70;;;5.72;;
68250;SDS011;55066;51.560;4.642;2023-05-23T03:28:35;17.08;;;5.45;;
68250;SDS011;55066;51.560;4.642;2023-05-23T03:31:01;16.77;;;5.57;;
68250;SDS011;55066;51.560;4.642;2023-05-23T03:33:26;15.77;;;5.10;;
68250;SDS011;55066;51.560;4.642;2023-05-23T03:35:53;12.90;;;4.77;;
68250;SDS011;55066;51.560;4.642;2023-05-23T03:38:20;13.48;;;4.70;;
68250;SDS011;55066;51.560;4.642;2023-05-23T03:40:46;14.00;;;4.90;;
68250;SDS011;55066;51.560;4.642;2023-05-23T03:43:12;18.33;;;4.70;;
68250;SDS011;55066;51.560;4.642;2023-05-23T03:45:40;14.43;;;4.73;;
68250;SDS011;55066;51.560;4.642;2023-05-23T03:48:11;14.73;;;4.80;;
68250;SDS011;55066;51.560;4.642;2023-05-23T03:50:36;22.15;;;5.15;;
68250;SDS011;55066;51.560;4.642;2023-05-23T03:53:02;15.10;;;4.70;;
68250;SDS011;55066;51.560;4.642;2023-05-23T03:55:30;12.80;;;4.30;;
68250;SDS011;55066;51.560;4.642;2023-05-23T03:57:57;15.35;;;4.78;;
68250;SDS011;55066;51.560;4.642;2023-05-23T04:00:23;17.67;;;4.45;;
68250;SDS011;55066;51.560;4.642;2023-05-23T04:02:50;19.80;;;5.10;;
68250;SDS011;55066;51.560;4.642;2023-05-23T04:05:19;19.80;;;5.00;;
68250;SDS011;55066;51.560;4.642;2023-05-23T04:07:46;14.38;;;4.30;;
68250;SDS011;55066;51.560;4.642;2023-05-23T04:10:12;19.05;;;5.68;;
68250;SDS011;55066;51.560;4.642;2023-05-23T04:12:41;17.48;;;5.13;;
68250;SDS011;55066;51.560;4.642;2023-05-23T04:15:12;13.43;;;4.85;;
68250;SDS011;55066;51.560;4.642;2023-05-23T04:17:47;16.65;;;4.75;;
68250;SDS011;55066;51.560;4.642;2023-05-23T04:20:13;21.57;;;5.80;;
68250;SDS011;55066;51.560;4.642;2023-05-23T04:22:38;13.90;;;4.53;;
68250;SDS011;55066;51.560;4.642;2023-05-23T04:25:08;14.23;;;4.17;;
68250;SDS011;55066;51.560;4.642;2023-05-23T04:27:42;17.38;;;5.40;;
68250;SDS011;55066;51.560;4.642;2023-05-23T04:30:09;14.15;;;3.47;;
68250;SDS011;55066;51.560;4.642;2023-05-23T04:32:37;16.65;;;3.67;;
68250;SDS011;55066;51.560;4.642;2023-05-23T04:35:04;13.20;;;3.77;;
68250;SDS011;55066;51.560;4.642;2023-05-23T04:37:31;12.75;;;3.58;;
68250;SDS011;55066;51.560;4.642;2023-05-23T04:40:00;13.65;;;3.97;;
68250;SDS011;55066;51.560;4.642;2023-05-23T04:42:35;13.47;;;3.60;;
68250;SDS011;55066;51.560;4.642;2023-05-23T04:45:11;16.13;;;3.88;;
68250;SDS011;55066;51.560;4.642;2023-05-23T04:47:51;14.93;;;3.90;;
68250;SDS011;55066;51.560;4.642;2023-05-23T04:50:31;11.10;;;3.78;;
68250;SDS011;55066;51.560;4.642;2023-05-23T04:53:02;17.67;;;4.15;;
68250;SDS011;55066;51.560;4.642;2023-05-23T04:55:27;11.70;;;3.10;;
68250;SDS011;55066;51.560;4.642;2023-05-23T04:57:54;11.50;;;3.85;;
68250;SDS011;55066;51.560;4.642;2023-05-23T05:00:21;10.57;;;2.80;;
68250;SDS011;55066;51.560;4.642;2023-05-23T05:02:49;13.45;;;3.28;;
68250;SDS011;55066;51.560;4.642;2023-05-23T05:05:15;10.73;;;3.75;;
68250;SDS011;55066;51.560;4.642;2023-05-23T05:07:41;11.75;;;3.40;;
68250;SDS011;55066;51.560;4.642;2023-05-23T05:10:08;13.38;;;3.03;;
68250;SDS011;55066;51.560;4.642;2023-05-23T05:12:44;8.90;;;2.92;;
68250;SDS011;55066;51.560;4.642;2023-05-23T05:15:18;9.50;;;3.03;;
68250;SDS011;55066;51.560;4.642;2023-05-23T05:17:46;14.65;;;3.40;;
68250;SDS011;55066;51.560;4.642;2023-05-23T05:20:17;10.02;;;3.03;;
68250;SDS011;55066;51.560;4.642;2023-05-23T05:22:44;11.60;;;2.78;;
68250;SDS011;55066;51.560;4.642;2023-05-23T05:25:11;11.20;;;3.00;;
68250;SDS011;55066;51.560;4.642;2023-05-23T05:27:36;10.55;;;3.00;;
68250;SDS011;55066;51.560;4.642;2023-05-23T05:30:07;13.57;;;3.05;;
68250;SDS011;55066;51.560;4.642;2023-05-23T05:32:44;14.03;;;3.37;;
68250;SDS011;55066;51.560;4.642;2023-05-23T05:35:15;7.60;;;2.88;;
68250;SDS011;55066;51.560;4.642;2023-05-23T05:37:42;14.18;;;3.47;;
68250;SDS011;55066;51.560;4.642;2023-05-23T05:40:11;8.38;;;3.03;;
68250;SDS011;55066;51.560;4.642;2023-05-23T05:42:40;12.18;;;3.42;;
68250;SDS011;55066;51.560;4.642;2023-05-23T05:45:05;11.97;;;3.13;;
68250;SDS011;55066;51.560;4.642;2023-05-23T05:47:33;9.20;;;2.97;;
68250;SDS011;55066;51.560;4.642;2023-05-23T05:49:58;13.07;;;3.63;;
68250;SDS011;55066;51.560;4.642;2023-05-23T05:52:24;10.03;;;3.13;;
68250;SDS011;55066;51.560;4.642;2023-05-23T05:54:58;12.68;;;4.20;;
68250;SDS011;55066;51.560;4.642;2023-05-23T05:57:25;14.30;;;4.03;;
68250;SDS011;55066;51.560;4.642;2023-05-23T05:59:53;12.15;;;3.70;;
68250;SDS011;55066;51.560;4.642;2023-05-23T06:02:19;11.65;;;3.80;;
68250;SDS011;55066;51.560;4.642;2023-05-23T06:04:45;12.40;;;3.30;;
68250;SDS011;55066;51.560;4.642;2023-05-23T06:07:11;12.65;;;3.80;;
68250;SDS011;55066;51.560;4.642;2023-05-23T06:09:39;15.30;;;4.20;;
68250;SDS011;55066;51.560;4.642;2023-05-23T06:12:05;9.43;;;3.80;;
68250;SDS011;55066;51.560;4.642;2023-05-23T06:14:34;14.15;;;4.13;;
68250;SDS011;55066;51.560;4.642;2023-05-23T06:16:59;15.63;;;4.33;;
68250;SDS011;55066;51.560;4.642;2023-05-23T06:19:24;14.33;;;4.63;;
68250;SDS011;55066;51.560;4.642;2023-05-23T06:21:50;14.38;;;3.95;;
68250;SDS011;55066;51.560;4.642;2023-05-23T06:24:17;14.80;;;4.53;;
68250;SDS011;55066;51.560;4.642;2023-05-23T06:26:43;20.20;;;4.90;;
68250;SDS011;55066;51.560;4.642;2023-05-23T06:29:08;13.17;;;4.60;;
68250;SDS011;55066;51.560;4.642;2023-05-23T06:31:34;17.30;;;4.40;;
68250;SDS011;55066;51.560;4.642;2023-05-23T06:34:00;14.47;;;3.80;;
68250;SDS011;55066;51.560;4.642;2023-05-23T06:36:27;13.90;;;3.50;;
68250;SDS011;55066;51.560;4.642;2023-05-23T06:38:53;10.77;;;3.47;;
68250;SDS011;55066;51.560;4.642;2023-05-23T06:41:20;14.50;;;4.38;;
68250;SDS011;55066;51.560;4.642;2023-05-23T06:43:51;18.38;;;4.05;;
68250;SDS011;55066;51.560;4.642;2023-05-23T06:46:24;14.60;;;4.10;;
68250;SDS011;55066;51.560;4.642;2023-05-23T06:48:49;14.45;;;4.13;;
68250;SDS011;55066;51.560;4.642;2023-05-23T06:51:17;13.63;;;3.38;;
68250;SDS011;55066;51.560;4.642;2023-05-23T06:53:43;13.30;;;3.57;;
68250;SDS011;55066;51.560;4.642;2023-05-23T06:56:10;9.73;;;3.25;;
68250;SDS011;55066;51.560;4.642;2023-05-23T06:58:48;9.23;;;4.10;;
68250;SDS011;55066;51.560;4.642;2023-05-23T07:01:13;9.40;;;3.07;;
68250;SDS011;55066;51.560;4.642;2023-05-23T07:03:45;12.13;;;3.65;;
68250;SDS011;55066;51.560;4.642;2023-05-23T07:06:13;13.13;;;3.92;;
68250;SDS011;55066;51.560;4.642;2023-05-23T07:08:39;14.48;;;3.60;;
68250;SDS011;55066;51.560;4.642;2023-05-23T07:11:05;14.73;;;3.70;;
68250;SDS011;55066;51.560;4.642;2023-05-23T07:13:41;10.63;;;3.50;;
68250;SDS011;55066;51.560;4.642;2023-05-23T07:16:09;13.73;;;4.07;;
68250;SDS011;55066;51.560;4.642;2023-05-23T07:18:44;10.83;;;3.87;;
68250;SDS011;55066;51.560;4.642;2023-05-23T07:21:10;13.43;;;3.30;;
68250;SDS011;55066;51.560;4.642;2023-05-23T07:23:47;9.60;;;2.78;;
68250;SDS011;55066;51.560;4.642;2023-05-23T07:26:13;10.47;;;3.40;;
68250;SDS011;55066;51.560;4.642;2023-05-23T07:28:45;11.75;;;3.20;;
68250;SDS011;55066;51.560;4.642;2023-05-23T07:31:11;9.75;;;3.08;;
68250;SDS011;55066;51.560;4.642;2023-05-23T07:33:37;8.00;;;3.17;;
68250;SDS011;55066;51.560;4.642;2023-05-23T07:36:03;7.68;;;2.75;;
68250;SDS011;55066;51.560;4.642;2023-05-23T07:38:29;9.80;;;3.03;;
68250;SDS011;55066;51.560;4.642;2023-05-23T07:40:55;12.60;;;3.03;;
68250;SDS011;55066;51.560;4.642;2023-05-23T07:43:20;10.90;;;2.97;;
68250;SDS011;55066;51.560;4.642;2023-05-23T07:45:46;11.17;;;3.00;;
68250;SDS011;55066;51.560;4.642;2023-05-23T07:48:12;8.88;;;2.75;;
68250;SDS011;55066;51.560;4.642;2023-05-23T07:50:38;7.95;;;2.30;;
68250;SDS011;55066;51.560;4.642;2023-05-23T07:53:06;13.77;;;2.60;;
68250;SDS011;55066;51.560;4.642;2023-05-23T07:55:33;7.57;;;2.70;;
68250;SDS011;55066;51.560;4.642;2023-05-23T07:57:59;10.18;;;3.25;;
68250;SDS011;55066;51.560;4.642;2023-05-23T08:00:30;9.35;;;2.78;;
68250;SDS011;55066;51.560;4.642;2023-05-23T08:03:03;9.40;;;2.90;;
68250;SDS011;55066;51.560;4.642;2023-05-23T08:05:35;8.23;;;2.90;;
68250;SDS011;55066;51.560;4.642;2023-05-23T08:08:00;9.77;;;2.42;;
68250;SDS011;55066;51.560;4.642;2023-05-23T08:10:25;7.93;;;2.10;;
68250;SDS011;55066;51.560;4.642;2023-05-23T08:13:02;8.60;;;2.80;;
68250;SDS011;55066;51.560;4.642;2023-05-23T08:15:34;10.70;;;2.63;;
68250;SDS011;55066;51.560;4.642;2023-05-23T08:18:08;6.70;;;2.50;;
68250;SDS011;55066;51.560;4.642;2023-05-23T08:20:33;9.73;;;2.63;;
68250;SDS011;55066;51.560;4.642;2023-05-23T08:22:59;7.72;;;3.10;;
68250;SDS011;55066;51.560;4.642;2023-05-23T08:25:27;9.00;;;2.57;;
68250;SDS011;55066;51.560;4.642;2023-05-23T08:27:55;11.25;;;2.75;;
68250;SDS011;55066;51.560;4.642;2023-05-23T08:30:43;10.18;;;2.80;;
68250;SDS011;55066;51.560;4.642;2023-05-23T08:33:08;7.73;;;2.93;;
68250;SDS011;55066;51.560;4.642;2023-05-23T08:35:37;8.82;;;2.65;;
68250;SDS011;55066;51.560;4.642;2023-05-23T08:38:08;6.18;;;2.97;;
68250;SDS011;55066;51.560;4.642;2023-05-23T08:40:37;13.55;;;3.35;;
68250;SDS011;55066;51.560;4.642;2023-05-23T08:43:08;6.67;;;2.30;;
68250;SDS011;55066;51.560;4.642;2023-05-23T08:45:35;6.25;;;2.08;;
68250;SDS011;55066;51.560;4.642;2023-05-23T08:48:02;10.07;;;2.38;;
68250;SDS011;55066;51.560;4.642;2023-05-23T08:50:34;6.30;;;1.83;;
68250;SDS011;55066;51.560;4.642;2023-05-23T08:53:01;4.78;;;1.77;;
68250;SDS011;55066;51.560;4.642;2023-05-23T08:55:29;10.27;;;2.17;;
68250;SDS011;55066;51.560;4.642;2023-05-23T08:57:58;10.15;;;2.17;;
68250;SDS011;55066;51.560;4.642;2023-05-23T09:00:39;8.57;;;1.95;;
68250;SDS011;55066;51.560;4.642;2023-05-23T09:03:08;7.75;;;1.90;;
68250;SDS011;55066;51.560;4.642;2023-05-23T09:05:56;8.00;;;2.22;;
68250;SDS011;55066;51.560;4.642;2023-05-23T09:08:23;7.50;;;2.30;;
68250;SDS011;55066;51.560;4.642;2023-05-23T09:10:54;11.57;;;2.65;;
68250;SDS011;55066;51.560;4.642;2023-05-23T09:13:20;7.80;;;2.80;;
68250;SDS011;55066;51.560;4.642;2023-05-23T09:16:22;7.88;;;2.70;;
68250;SDS011;55066;51.560;4.642;2023-05-23T09:18:47;8.15;;;2.30;;
68250;SDS011;55066;51.560;4.642;2023-05-23T09:21:14;9.97;;;2.60;;
68250;SDS011;55066;51.560;4.642;2023-05-23T09:23:58;6.65;;;1.90;;
68250;SDS011;55066;51.560;4.642;2023-05-23T09:26:26;10.70;;;1.77;;
68250;SDS011;55066;51.560;4.642;2023-05-23T09:28:56;9.75;;;1.73;;
68250;SDS011;55066;51.560;4.642;2023-05-23T09:31:25;7.20;;;1.90;;
68250;SDS011;55066;51.560;4.642;2023-05-23T09:33:56;9.40;;;2.00;;
68250;SDS011;55066;51.560;4.642;2023-05-23T09:36:28;8.18;;;2.03;;
68250;SDS011;55066;51.560;4.642;2023-05-23T09:39:02;8.55;;;2.15;;
68250;SDS011;55066;51.560;4.642;2023-05-23T09:41:32;9.45;;;2.10;;
68250;SDS011;55066;51.560;4.642;2023-05-23T09:43:58;7.88;;;1.83;;
68250;SDS011;55066;51.560;4.642;2023-05-23T09:46:29;9.20;;;2.10;;
68250;SDS011;55066;51.560;4.642;2023-05-23T09:48:55;14.85;;;2.95;;
68250;SDS011;55066;51.560;4.642;2023-05-23T09:51:22;12.67;;;2.20;;
68250;SDS011;55066;51.560;4.642;2023-05-23T09:53:49;12.82;;;2.95;;
68250;SDS011;55066;51.560;4.642;2023-05-23T09:56:15;10.50;;;2.35;;
68250;SDS011;55066;51.560;4.642;2023-05-23T09:58:47;10.73;;;2.10;;
68250;SDS011;55066;51.560;4.642;2023-05-23T10:01:15;8.98;;;2.25;;
68250;SDS011;55066;51.560;4.642;2023-05-23T10:03:47;10.20;;;2.30;;
68250;SDS011;55066;51.560;4.642;2023-05-23T10:06:22;10.23;;;2.30;;
68250;SDS011;55066;51.560;4.642;2023-05-23T10:08:58;12.43;;;2.47;;
68250;SDS011;55066;51.560;4.642;2023-05-23T10:14:02;15.68;;;2.40;;
68250;SDS011;55066;51.560;4.642;2023-05-23T10:16:37;11.98;;;2.40;;
68250;SDS011;55066;51.560;4.642;2023-05-23T10:19:09;8.23;;;2.40;;
68250;SDS011;55066;51.560;4.642;2023-05-23T10:22:00;12.55;;;2.03;;
68250;SDS011;55066;51.560;4.642;2023-05-23T10:24:28;9.57;;;2.43;;
68250;SDS011;55066;51.560;4.642;2023-05-23T10:26:54;7.82;;;1.95;;
68250;SDS011;55066;51.560;4.642;2023-05-23T10:29:22;7.18;;;2.30;;
68250;SDS011;55066;51.560;4.642;2023-05-23T10:31:48;12.37;;;2.70;;
68250;SDS011;55066;51.560;4.642;2023-05-23T10:34:27;12.52;;;2.40;;
68250;SDS011;55066;51.560;4.642;2023-05-23T10:36:58;8.75;;;2.20;;
68250;SDS011;55066;51.560;4.642;2023-05-23T10:39:53;10.05;;;2.33;;
68250;SDS011;55066;51.560;4.642;2023-05-23T10:42:34;9.40;;;2.47;;
68250;SDS011;55066;51.560;4.642;2023-05-23T10:45:15;9.60;;;2.50;;
68250;SDS011;55066;51.560;4.642;2023-05-23T10:47:45;10.15;;;2.28;;
68250;SDS011;55066;51.560;4.642;2023-05-23T10:50:11;8.88;;;2.20;;
68250;SDS011;55066;51.560;4.642;2023-05-23T10:52:40;6.55;;;2.17;;
68250;SDS011;55066;51.560;4.642;2023-05-23T10:55:13;7.88;;;2.30;;
68250;SDS011;55066;51.560;4.642;2023-05-23T10:57:43;12.00;;;1.97;;
68250;SDS011;55066;51.560;4.642;2023-05-23T11:00:13;9.23;;;2.42;;
68250;SDS011;55066;51.560;4.642;2023-05-23T11:02:45;14.13;;;3.33;;
68250;SDS011;55066;51.560;4.642;2023-05-23T11:05:26;11.70;;;2.63;;
68250;SDS011;55066;51.560;4.642;2023-05-23T11:08:06;8.35;;;2.42;;
68250;SDS011;55066;51.560;4.642;2023-05-23T11:13:40;7.03;;;2.08;;
68250;SDS011;55066;51.560;4.642;2023-05-23T11:21:44;11.65;;;2.33;;
68250;SDS011;55066;51.560;4.642;2023-05-23T11:24:12;10.80;;;2.40;;
68250;SDS011;55066;51.560;4.642;2023-05-23T11:26:38;8.70;;;2.22;;
68250;SDS011;55066;51.560;4.642;2023-05-23T11:29:07;10.17;;;2.10;;
68250;SDS011;55066;51.560;4.642;2023-05-23T11:31:37;13.88;;;2.65;;
68250;SDS011;55066;51.560;4.642;2023-05-23T11:34:05;9.50;;;2.35;;
68250;SDS011;55066;51.560;4.642;2023-05-23T11:36:33;10.93;;;3.05;;
68250;SDS011;55066;51.560;4.642;2023-05-23T11:39:02;12.00;;;2.23;;
68250;SDS011;55066;51.560;4.642;2023-05-23T11:41:29;8.52;;;2.42;;
68250;SDS011;55066;51.560;4.642;2023-05-23T11:44:00;12.50;;;2.70;;
68250;SDS011;55066;51.560;4.642;2023-05-23T11:46:26;13.47;;;2.17;;
68250;SDS011;55066;51.560;4.642;2023-05-23T11:48:53;8.35;;;2.05;;
68250;SDS011;55066;51.560;4.642;2023-05-23T11:51:18;7.27;;;2.20;;
68250;SDS011;55066;51.560;4.642;2023-05-23T11:53:46;13.68;;;2.70;;
68250;SDS011;55066;51.560;4.642;2023-05-23T11:56:13;9.15;;;2.60;;
68250;SDS011;55066;51.560;4.642;2023-05-23T11:58:39;7.13;;;2.25;;
68250;SDS011;55066;51.560;4.642;2023-05-23T12:01:07;7.57;;;2.28;;
68250;SDS011;55066;51.560;4.642;2023-05-23T12:03:45;9.43;;;2.27;;
68250;SDS011;55066;51.560;4.642;2023-05-23T12:06:17;12.18;;;2.63;;
68250;SDS011;55066;51.560;4.642;2023-05-23T12:08:43;10.15;;;2.65;;
68250;SDS011;55066;51.560;4.642;2023-05-23T12:11:08;8.43;;;2.40;;
68250;SDS011;55066;51.560;4.642;2023-05-23T12:13:34;13.65;;;2.67;;
68250;SDS011;55066;51.560;4.642;2023-05-23T12:16:01;9.80;;;2.65;;
68250;SDS011;55066;51.560;4.642;2023-05-23T12:18:31;11.60;;;2.40;;
68250;SDS011;55066;51.560;4.642;2023-05-23T12:21:00;9.60;;;2.70;;
68250;SDS011;55066;51.560;4.642;2023-05-23T12:23:27;11.67;;;2.47;;
68250;SDS011;55066;51.560;4.642;2023-05-23T12:25:54;12.48;;;2.42;;
68250;SDS011;55066;51.560;4.642;2023-05-23T12:28:32;11.05;;;2.47;;
68250;SDS011;55066;51.560;4.642;2023-05-23T12:33:43;13.70;;;2.60;;
68250;SDS011;55066;51.560;4.642;2023-05-23T12:36:11;13.20;;;2.50;;
68250;SDS011;55066;51.560;4.642;2023-05-23T12:38:39;11.88;;;2.65;;
68250;SDS011;55066;51.560;4.642;2023-05-23T12:43:53;11.70;;;2.53;;
68250;SDS011;55066;51.560;4.642;2023-05-23T12:46:22;7.50;;;2.60;;
68250;SDS011;55066;51.560;4.642;2023-05-23T12:48:49;11.07;;;2.53;;
68250;SDS011;55066;51.560;4.642;2023-05-23T12:51:15;8.95;;;2.25;;
68250;SDS011;55066;51.560;4.642;2023-05-23T12:53:41;13.23;;;2.40;;
68250;SDS011;55066;51.560;4.642;2023-05-23T12:56:07;10.30;;;2.30;;
68250;SDS011;55066;51.560;4.642;2023-05-23T12:58:32;8.67;;;2.17;;
68250;SDS011;55066;51.560;4.642;2023-05-23T13:00:59;10.10;;;2.22;;
68250;SDS011;55066;51.560;4.642;2023-05-23T13:03:29;7.47;;;2.08;;
68250;SDS011;55066;51.560;4.642;2023-05-23T13:05:55;15.47;;;2.57;;
68250;SDS011;55066;51.560;4.642;2023-05-23T13:08:21;8.55;;;2.25;;
68250;SDS011;55066;51.560;4.642;2023-05-23T13:10:47;9.85;;;2.53;;
68250;SDS011;55066;51.560;4.642;2023-05-23T13:13:13;6.72;;;2.38;;
68250;SDS011;55066;51.560;4.642;2023-05-23T13:15:39;14.43;;;2.80;;
68250;SDS011;55066;51.560;4.642;2023-05-23T13:18:04;8.40;;;2.28;;
68250;SDS011;55066;51.560;4.642;2023-05-23T13:20:30;6.87;;;2.20;;
68250;SDS011;55066;51.560;4.642;2023-05-23T13:22:56;8.07;;;2.30;;
68250;SDS011;55066;51.560;4.642;2023-05-23T13:25:21;9.27;;;2.10;;
68250;SDS011;55066;51.560;4.642;2023-05-23T13:27:47;10.40;;;2.45;;
68250;SDS011;55066;51.560;4.642;2023-05-23T13:30:13;9.13;;;2.40;;
68250;SDS011;55066;51.560;4.642;2023-05-23T13:32:38;9.63;;;2.37;;
68250;SDS011;55066;51.560;4.642;2023-05-23T13:35:08;10.10;;;2.47;;
68250;SDS011;55066;51.560;4.642;2023-05-23T13:37:35;12.10;;;2.30;;
68250;SDS011;55066;51.560;4.642;2023-05-23T13:40:02;7.25;;;2.13;;
68250;SDS011;55066;51.560;4.642;2023-05-23T13:42:28;11.23;;;2.72;;
68250;SDS011;55066;51.560;4.642;2023-05-23T13:44:54;10.53;;;1.87;;
68250;SDS011;55066;51.560;4.642;2023-05-23T13:47:19;11.83;;;2.80;;
68250;SDS011;55066;51.560;4.642;2023-05-23T13:49:45;11.77;;;2.40;;
68250;SDS011;55066;51.560;4.642;2023-05-23T13:52:10;5.83;;;2.10;;
68250;SDS011;55066;51.560;4.642;2023-05-23T13:54:38;8.23;;;2.20;;
68250;SDS011;55066;51.560;4.642;2023-05-23T13:57:04;8.68;;;2.13;;
68250;SDS011;55066;51.560;4.642;2023-05-23T13:59:30;9.53;;;2.47;;
68250;SDS011;55066;51.560;4.642;2023-05-23T14:01:56;8.15;;;1.85;;
68250;SDS011;55066;51.560;4.642;2023-05-23T14:04:21;9.27;;;1.90;;
68250;SDS011;55066;51.560;4.642;2023-05-23T14:06:47;6.87;;;2.20;;
68250;SDS011;55066;51.560;4.642;2023-05-23T14:09:13;13.60;;;2.58;;
68250;SDS011;55066;51.560;4.642;2023-05-23T14:11:39;8.30;;;2.57;;
68250;SDS011;55066;51.560;4.642;2023-05-23T14:14:04;8.57;;;2.37;;
68250;SDS011;55066;51.560;4.642;2023-05-23T14:16:30;9.30;;;2.30;;
68250;SDS011;55066;51.560;4.642;2023-05-23T14:18:55;8.83;;;2.53;;
68250;SDS011;55066;51.560;4.642;2023-05-23T14:21:21;7.95;;;2.00;;
68250;SDS011;55066;51.560;4.642;2023-05-23T14:23:46;6.93;;;2.17;;
68250;SDS011;55066;51.560;4.642;2023-05-23T14:26:12;12.20;;;2.30;;
68250;SDS011;55066;51.560;4.642;2023-05-23T14:28:38;10.68;;;2.47;;
68250;SDS011;55066;51.560;4.642;2023-05-23T14:31:03;13.33;;;2.57;;
68250;SDS011;55066;51.560;4.642;2023-05-23T14:33:29;7.97;;;2.17;;
68250;SDS011;55066;51.560;4.642;2023-05-23T14:35:54;10.25;;;2.70;;
68250;SDS011;55066;51.560;4.642;2023-05-23T14:38:20;7.63;;;2.20;;
68250;SDS011;55066;51.560;4.642;2023-05-23T14:40:45;9.87;;;2.53;;
68250;SDS011;55066;51.560;4.642;2023-05-23T14:43:11;8.30;;;2.17;;
68250;SDS011;55066;51.560;4.642;2023-05-23T14:45:37;6.67;;;1.93;;
68250;SDS011;55066;51.560;4.642;2023-05-23T14:48:03;6.47;;;2.10;;
68250;SDS011;55066;51.560;4.642;2023-05-23T14:50:29;8.93;;;2.07;;
68250;SDS011;55066;51.560;4.642;2023-05-23T14:52:55;8.07;;;2.13;;
68250;SDS011;55066;51.560;4.642;2023-05-23T14:55:22;7.50;;;1.97;;
68250;SDS011;55066;51.560;4.642;2023-05-23T14:57:48;10.57;;;2.67;;
68250;SDS011;55066;51.560;4.642;2023-05-23T15:00:13;11.93;;;2.00;;
68250;SDS011;55066;51.560;4.642;2023-05-23T15:02:39;9.88;;;1.83;;
68250;SDS011;55066;51.560;4.642;2023-05-23T15:05:06;7.18;;;1.85;;
68250;SDS011;55066;51.560;4.642;2023-05-23T15:07:34;12.83;;;2.20;;